WXM80 ListenWXM80 Stop

You find our weather info also at:

UK Metoffice

WeatherCloud

Weather Underground

Northeastern Weather Network

AWEKAS

Citizen Weather Observer Program (CWOP)

HAMweather, WeatherForYou, PWS Weather


Weather Underground History page Text

Daily Summary for August 23, 2016 Units:  English    Metric   Both
« Previous Day
Next Day »
Daily Weekly Monthly Yearly Custom
  High: Low: Average:
Temperature: 85.3 °F 61.1 °F 73 °F
Dew Point: 63.0 °F 52.0 °F 57 °F
Humidity: 89 % 33 % 60 %
Wind Speed: 5.4 mph 0.0 mph 1.3 mph
Wind Gust: 9.2 mph - -
Wind:- - SW
Pressure: 30.30 in 30.18 in -
Precipitation: 0.00 in    
Historical Graphs
 
 
Tabular Data for August 23, 2016
Time Temperature Dew Point Pressure Wind Wind Speed Wind Gust Humidity Rainfall Rate (Hourly)
00:01 67.0 °F 53.5 °F 30.18 in Calm   3.5 mph 62 % 0.00 in
00:06 66.9 °F 53.5 °F 30.18 in NNE 1.1 mph 3.5 mph 62 % 0.00 in
00:11 66.8 °F 53.4 °F 30.18 in West 0.9 mph 3.5 mph 62 % 0.00 in
00:21 66.7 °F 53.3 °F 30.19 in North 1.7 mph 3.5 mph 62 % 0.00 in
00:26 66.7 °F 53.7 °F 30.19 in NNE 0.5 mph 3.5 mph 63 % 0.00 in
00:31 66.6 °F 53.6 °F 30.19 in North 2.5 mph 5.8 mph 63 % 0.00 in
00:41 66.5 °F 53.9 °F 30.19 in North 0.8 mph 2.3 mph 64 % 0.00 in
00:52 66.3 °F 54.2 °F 30.19 in North 0.8 mph 4.0 mph 65 % 0.00 in
00:57 66.3 °F 54.2 °F 30.19 in North 3.0 mph 5.0 mph 65 % 0.00 in
01:02 66.3 °F 53.8 °F 30.19 in North 0.8 mph 3.5 mph 64 % 0.00 in
01:07 66.3 °F 54.2 °F 30.19 in NE 5.4 mph 8.1 mph 65 % 0.00 in
01:12 66.3 °F 54.6 °F 30.19 in NNW 1.3 mph 4.6 mph 66 % 0.00 in
01:17 66.3 °F 54.6 °F 30.19 in NW 1.5 mph 3.5 mph 66 % 0.00 in
01:22 66.3 °F 54.6 °F 30.19 in NNE 3.2 mph 4.6 mph 66 % 0.00 in
01:27 66.3 °F 54.6 °F 30.19 in NNW 1.7 mph 4.6 mph 66 % 0.00 in
01:32 66.3 °F 54.6 °F 30.19 in North 2.8 mph 4.0 mph 66 % 0.00 in
01:37 66.3 °F 54.6 °F 30.20 in North 0.3 mph 2.3 mph 66 % 0.00 in
01:43 66.4 °F 55.1 °F 30.19 in North 1.0 mph   67 % 0.00 in
01:48 66.3 °F 54.6 °F 30.20 in North 1.3 mph 3.5 mph 66 % 0.00 in
01:53 66.3 °F 54.6 °F 30.20 in NNW 0.9 mph 3.5 mph 66 % 0.00 in
01:58 66.2 °F 54.1 °F 30.19 in North 0.6 mph 4.6 mph 65 % 0.00 in
02:03 66.2 °F 53.7 °F 30.19 in NNW 1.9 mph 6.0 mph 64 % 0.00 in
02:08 66.2 °F 53.7 °F 30.19 in North 1.0 mph 3.0 mph 64 % 0.00 in
02:13 66.2 °F 53.7 °F 30.19 in North 2.3 mph 5.0 mph 64 % 0.00 in
02:18 66.1 °F 54.0 °F 30.19 in North 0.8 mph 2.0 mph 65 % 0.00 in
02:23 66.1 °F 54.0 °F 30.19 in North 2.8 mph 3.5 mph 65 % 0.00 in
02:28 66.1 °F 53.6 °F 30.20 in NNW 1.8 mph 5.8 mph 64 % 0.00 in
02:34 66.1 °F 53.6 °F 30.20 in NW 0.9 mph 5.8 mph 64 % 0.00 in
02:44 66.1 °F 53.6 °F 30.20 in North 1.2 mph 3.5 mph 64 % 0.00 in
02:49 66.1 °F 53.1 °F 30.19 in NNE 4.4 mph 8.0 mph 63 % 0.00 in
02:54 66.2 °F 53.2 °F 30.20 in NNW 3.4 mph 5.8 mph 63 % 0.00 in
02:59 66.3 °F 53.3 °F 30.20 in North 2.1 mph 3.5 mph 63 % 0.00 in
03:04 66.3 °F 53.8 °F 30.19 in NE 4.0 mph 6.0 mph 64 % 0.00 in
03:09 66.3 °F 53.8 °F 30.20 in North 2.6 mph 4.6 mph 64 % 0.00 in
03:14 66.3 °F 53.3 °F 30.20 in North 5.4 mph 9.2 mph 63 % 0.00 in
03:19 66.3 °F 53.8 °F 30.20 in NNE 1.1 mph 4.6 mph 64 % 0.00 in
03:25 66.4 °F 53.8 °F 30.20 in NNE 1.8 mph 4.0 mph 64 % 0.00 in
03:35 66.3 °F 54.2 °F 30.20 in NNE 3.3 mph 4.6 mph 65 % 0.00 in
03:40 66.2 °F 54.5 °F 30.21 in Calm   2.3 mph 66 % 0.00 in
03:45 66.1 °F 54.4 °F 30.21 in North 2.1 mph 4.0 mph 66 % 0.00 in
03:55 65.9 °F 54.6 °F 30.21 in NNW 2.1 mph 5.8 mph 67 % 0.00 in
04:00 65.8 °F 54.5 °F 30.21 in NNE 1.3 mph 2.3 mph 67 % 0.00 in
04:05 65.8 °F 54.5 °F 30.21 in NNW 2.4 mph 3.5 mph 67 % 0.00 in
04:10 65.7 °F 54.8 °F 30.21 in NNW 0.2 mph 3.5 mph 68 % 0.00 in
04:15 65.7 °F 54.8 °F 30.21 in NNW 0.1 mph 1.0 mph 68 % 0.00 in
04:20 65.7 °F 55.2 °F 30.21 in Calm   1.2 mph 69 % 0.00 in
04:26 65.6 °F 53.9 °F 30.22 in NNW 2.0 mph 5.0 mph 66 % 0.00 in
04:31 65.5 °F 53.8 °F 30.22 in North 1.0 mph 3.0 mph 66 % 0.00 in
04:36 65.4 °F 54.2 °F 30.22 in North 2.0 mph 7.0 mph 67 % 0.00 in
04:41 65.4 °F 54.6 °F 30.22 in NNW 1.0 mph 5.0 mph 68 % 0.00 in
04:46 65.3 °F 54.5 °F 30.23 in NNW 1.0 mph 6.0 mph 68 % 0.00 in
04:51 65.2 °F 54.4 °F 30.23 in Calm   5.0 mph 68 % 0.00 in
04:56 65.1 °F 54.3 °F 30.23 in Calm   3.0 mph 68 % 0.00 in
05:01 65.1 °F 54.7 °F 30.23 in West 0.4 mph 3.5 mph 69 % 0.00 in
05:06 65.0 °F 55.4 °F 30.23 in NNW 1.0 mph 3.0 mph 71 % 0.00 in
05:11 64.9 °F 55.7 °F 30.23 in Calm   1.0 mph 72 % 0.00 in
05:16 64.8 °F 55.5 °F 30.24 in Calm   1.0 mph 72 % 0.00 in
05:21 64.5 °F 55.7 °F 30.23 in Calm   1.0 mph 73 % 0.00 in
05:26 64.2 °F 55.8 °F 30.24 in WNW 1.0 mph 2.0 mph 74 % 0.00 in
05:31 63.9 °F 55.5 °F 30.24 in Calm   2.0 mph 74 % 0.00 in
05:36 63.5 °F 55.4 °F 30.24 in WNW 1.0 mph 2.0 mph 75 % 0.00 in
05:41 63.2 °F 55.5 °F 30.24 in WNW 1.0 mph 2.0 mph 76 % 0.00 in
05:46 62.8 °F 55.5 °F 30.24 in Calm   2.0 mph 77 % 0.00 in
05:51 62.5 °F 55.5 °F 30.25 in West 1.0 mph 2.0 mph 78 % 0.00 in
05:56 62.2 °F 55.3 °F 30.25 in West 1.0 mph 2.0 mph 78 % 0.00 in
06:01 61.9 °F 55.3 °F 30.25 in Calm     79 % 0.00 in
06:11 61.6 °F 55.4 °F 30.25 in West 1.0 mph 3.0 mph 80 % 0.00 in
06:16 61.5 °F 55.6 °F 30.26 in Calm   2.0 mph 81 % 0.00 in
06:21 61.4 °F 55.9 °F 30.26 in Calm   1.0 mph 82 % 0.00 in
06:26 61.3 °F 56.1 °F 30.26 in Calm   1.0 mph 83 % 0.00 in
06:31 61.3 °F 56.1 °F 30.26 in Calm   1.0 mph 83 % 0.00 in
06:36 61.2 °F 56.0 °F 30.26 in West 0.1 mph 1.0 mph 83 % 0.00 in
06:46 61.2 °F 56.7 °F 30.26 in Calm     85 % 0.00 in
06:51 61.2 °F 56.6 °F 30.26 in Calm     85 % 0.00 in
06:56 61.1 °F 56.9 °F 30.26 in Calm     86 % 0.00 in
07:01 61.2 °F 57.3 °F 30.26 in Calm     87 % 0.00 in
07:06 61.2 °F 57.3 °F 30.26 in Calm   1.0 mph 87 % 0.00 in
07:11 61.2 °F 57.3 °F 30.26 in West 0.2 mph 1.2 mph 87 % 0.00 in
07:16 61.2 °F 57.3 °F 30.27 in Calm   1.2 mph 87 % 0.00 in
07:21 61.3 °F 57.7 °F 30.27 in WSW 0.8 mph 3.5 mph 88 % 0.00 in
07:26 61.4 °F 58.1 °F 30.27 in West 0.7 mph 2.3 mph 89 % 0.00 in
07:31 61.6 °F 58.3 °F 30.27 in West 0.2 mph 3.5 mph 89 % 0.00 in
07:41 62.0 °F 58.4 °F 30.27 in West 0.6 mph 2.3 mph 88 % 0.00 in
07:46 62.2 °F 58.6 °F 30.28 in West 0.2 mph 3.5 mph 88 % 0.00 in
07:52 62.5 °F 58.3 °F 30.28 in WNW 0.2 mph 1.2 mph 86 % 0.00 in
07:57 62.7 °F 58.1 °F 30.28 in Calm   1.2 mph 85 % 0.00 in
08:02 63.0 °F 57.1 °F 30.28 in WNW 1.2 mph 3.5 mph 81 % 0.00 in
08:07 63.2 °F 56.9 °F 30.28 in WNW 0.7 mph 2.3 mph 80 % 0.00 in
08:12 63.5 °F 56.5 °F 30.28 in WNW 0.7 mph 3.5 mph 78 % 0.00 in
08:17 63.8 °F 56.1 °F 30.28 in WNW 1.8 mph 3.5 mph 76 % 0.00 in
08:22 64.0 °F 55.5 °F 30.28 in WNW 1.6 mph 3.0 mph 74 % 0.00 in
08:27 64.3 °F 55.8 °F 30.28 in Calm   1.2 mph 74 % 0.00 in
08:32 64.7 °F 55.8 °F 30.28 in West 1.7 mph 2.3 mph 73 % 0.00 in
08:43 65.3 °F 55.7 °F 30.28 in WNW 1.9 mph 4.0 mph 71 % 0.00 in
08:48 65.6 °F 55.5 °F 30.28 in SW 2.8 mph 4.0 mph 70 % 0.00 in
08:53 66.0 °F 55.5 °F 30.29 in WNW 2.5 mph 4.0 mph 69 % 0.00 in
08:58 66.3 °F 55.4 °F 30.28 in SW 2.0 mph 3.5 mph 68 % 0.00 in
09:03 66.6 °F 54.5 °F 30.28 in WSW 2.4 mph 3.5 mph 65 % 0.00 in
09:08 66.9 °F 55.6 °F 30.29 in WNW 1.8 mph 3.5 mph 67 % 0.00 in
09:13 67.1 °F 54.9 °F 30.28 in West 1.2 mph 2.3 mph 65 % 0.00 in
09:18 67.4 °F 55.2 °F 30.29 in NNW 0.2 mph 1.2 mph 65 % 0.00 in
09:23 67.7 °F 55.1 °F 30.29 in WSW 3.8 mph 4.6 mph 64 % 0.00 in
09:34 68.5 °F 56.7 °F 30.29 in WNW 1.5 mph 4.0 mph 66 % 0.00 in
09:39 68.9 °F 54.9 °F 30.29 in SW 2.1 mph 6.0 mph 61 % 0.00 in
09:44 69.5 °F 56.8 °F 30.29 in NNE 1.1 mph 4.0 mph 64 % 0.00 in
09:49 70.2 °F 57.4 °F 30.30 in WNW 1.8 mph 4.6 mph 64 % 0.00 in
09:54 71.2 °F 56.1 °F 30.30 in NNE 2.9 mph 4.6 mph 59 % 0.00 in
09:59 72.3 °F 58.1 °F 30.30 in West 1.2 mph 5.0 mph 61 % 0.00 in
10:04 73.1 °F 57.0 °F 30.30 in NNW 3.0 mph 4.6 mph 57 % 0.00 in
10:09 73.7 °F 56.0 °F 30.29 in NW 2.5 mph 4.6 mph 54 % 0.00 in
10:14 74.1 °F 55.3 °F 30.30 in North 2.5 mph 6.9 mph 52 % 0.00 in
10:19 74.1 °F 55.9 °F 30.30 in NNE 2.9 mph 4.6 mph 53 % 0.00 in
10:25 74.2 °F 56.5 °F 30.30 in NNE 3.1 mph 5.0 mph 54 % 0.00 in
10:30 74.1 °F 56.4 °F 30.30 in North 0.5 mph 4.6 mph 54 % 0.00 in
10:35 74.3 °F 57.1 °F 30.30 in WNW 0.2 mph 4.6 mph 55 % 0.00 in
10:40 74.8 °F 57.0 °F 30.30 in NNW 1.5 mph 3.5 mph 54 % 0.00 in
10:45 75.3 °F 57.0 °F 30.30 in WNW 2.3 mph 3.5 mph 53 % 0.00 in
10:50 75.9 °F 59.1 °F 30.30 in North 1.7 mph 3.5 mph 56 % 0.00 in
10:55 76.5 °F 55.9 °F 30.30 in North 0.4 mph 1.2 mph 49 % 0.00 in
11:00 77.0 °F 58.6 °F 30.30 in North 0.5 mph 3.5 mph 53 % 0.00 in
11:05 77.6 °F 58.0 °F 30.30 in NNE 4.1 mph 6.9 mph 51 % 0.00 in
11:10 78.0 °F 56.7 °F 30.30 in NNE 4.0 mph 6.0 mph 48 % 0.00 in
11:16 78.5 °F 58.9 °F 30.29 in NNE 2.0 mph 6.0 mph 51 % 0.00 in
11:21 79.1 °F 57.1 °F 30.30 in NNE 2.0 mph 5.0 mph 47 % 0.00 in
11:25 79.6 °F 58.2 °F 30.29 in WNW 1.3 mph 2.3 mph 48 % 0.00 in
11:31 80.0 °F 56.1 °F 30.29 in NW 1.0 mph 4.0 mph 44 % 0.00 in
11:36 80.4 °F 58.9 °F 30.29 in North 1.0 mph 6.0 mph 48 % 0.00 in
11:40 81.0 °F 60.0 °F 30.29 in North 2.9 mph 3.5 mph 49 % 0.00 in
11:46 81.4 °F 58.0 °F 30.28 in North 3.0 mph 6.0 mph 45 % 0.00 in
11:51 81.5 °F 58.7 °F 30.28 in NNE 1.0 mph 5.0 mph 46 % 0.00 in
11:56 81.6 °F 59.4 °F 30.28 in NNE 3.9 mph 6.9 mph 47 % 0.00 in
12:01 81.8 °F 59.6 °F 30.28 in NNE 1.6 mph 4.6 mph 47 % 0.00 in
12:06 82.0 °F 60.4 °F 30.28 in NNE 1.9 mph 4.6 mph 48 % 0.00 in
12:11 82.2 °F 57.5 °F 30.28 in WNW 0.7 mph 6.9 mph 43 % 0.00 in
12:16 82.5 °F 59.6 °F 30.28 in NW 1.1 mph 3.5 mph 46 % 0.00 in
12:21 82.8 °F 59.3 °F 30.28 in NNE 3.8 mph 5.8 mph 45 % 0.00 in
12:26 82.9 °F 59.4 °F 30.27 in NNE 0.7 mph 1.2 mph 45 % 0.00 in
12:31 83.2 °F 57.7 °F 30.27 in SW 3.8 mph 5.0 mph 42 % 0.00 in
12:36 83.4 °F 56.5 °F 30.27 in West 1.4 mph 5.8 mph 40 % 0.00 in
12:41 83.4 °F 57.9 °F 30.27 in West 3.5 mph 8.1 mph 42 % 0.00 in
12:47 83.2 °F 55.0 °F 30.27 in SW 2.1 mph 4.6 mph 38 % 0.00 in
12:52 83.3 °F 57.1 °F 30.27 in WSW 2.4 mph 7.0 mph 41 % 0.00 in
12:57 83.4 °F 58.6 °F 30.27 in SW 3.2 mph 5.8 mph 43 % 0.00 in
13:02 83.4 °F 53.6 °F 30.27 in WSW 2.9 mph 4.6 mph 36 % 0.00 in
13:12 83.2 °F 55.0 °F 30.27 in SW 4.3 mph 5.8 mph 38 % 0.00 in
13:17 83.2 °F 55.0 °F 30.27 in SW 2.4 mph 6.0 mph 38 % 0.00 in
13:22 83.3 °F 56.5 °F 30.27 in WSW 4.7 mph 7.0 mph 40 % 0.00 in
13:27 83.3 °F 55.8 °F 30.27 in West 2.6 mph 8.1 mph 39 % 0.00 in
13:32 83.3 °F 57.1 °F 30.27 in SW 4.1 mph 4.1 mph 41 % 0.00 in
13:38 83.3 °F 54.3 °F 30.27 in West 4.5 mph 6.9 mph 37 % 0.00 in
13:43 83.1 °F 54.9 °F 30.27 in SW 4.8 mph 6.0 mph 38 % 0.00 in
13:48 83.0 °F 54.0 °F 30.27 in WSW 3.2 mph 4.6 mph 37 % 0.00 in
13:53 83.0 °F 54.0 °F 30.27 in NW 1.3 mph 4.6 mph 37 % 0.00 in
13:58 83.2 °F 55.0 °F 30.26 in SW 3.6 mph 5.8 mph 38 % 0.00 in
14:03 83.4 °F 55.8 °F 30.26 in SW 4.3 mph 5.8 mph 39 % 0.00 in
14:08 83.6 °F 54.6 °F 30.26 in SSW 3.0 mph 3.5 mph 37 % 0.00 in
14:13 83.9 °F 54.1 °F 30.25 in SW 2.6 mph 5.8 mph 36 % 0.00 in
14:18 84.0 °F 56.4 °F 30.25 in WSW 1.9 mph 4.0 mph 39 % 0.00 in
14:23 84.2 °F 53.6 °F 30.25 in SW 3.8 mph 6.9 mph 35 % 0.00 in
14:29 84.2 °F 54.4 °F 30.25 in SW 4.4 mph 8.1 mph 36 % 0.00 in
14:34 84.2 °F 52.0 °F 30.26 in SW 3.2 mph 5.8 mph 33 % 0.00 in
14:39 84.2 °F 52.8 °F 30.25 in SSW 2.2 mph 5.8 mph 34 % 0.00 in
14:44 84.1 °F 56.5 °F 30.25 in West 0.5 mph 6.9 mph 39 % 0.00 in
14:49 84.2 °F 55.1 °F 30.24 in Calm     37 % 0.00 in
14:54 84.4 °F 53.8 °F 30.24 in West 3.7 mph 4.6 mph 35 % 0.00 in
14:59 84.5 °F 56.8 °F 30.24 in NW 2.4 mph 3.5 mph 39 % 0.00 in
15:04 84.6 °F 55.5 °F 30.24 in West 0.7 mph 5.8 mph 37 % 0.00 in
15:09 84.6 °F 53.9 °F 30.24 in West 2.3 mph 4.6 mph 35 % 0.00 in
15:14 84.7 °F 54.0 °F 30.24 in SSW 2.4 mph 6.9 mph 35 % 0.00 in
15:25 85.0 °F 55.1 °F 30.24 in WSW 4.9 mph 6.0 mph 36 % 0.00 in
15:30 85.0 °F 54.3 °F 30.23 in SW 2.5 mph 5.8 mph 35 % 0.00 in
15:35 85.1 °F 56.6 °F 30.23 in West 1.9 mph 4.0 mph 38 % 0.00 in
15:40 85.1 °F 54.4 °F 30.23 in WNW 3.0 mph 4.6 mph 35 % 0.00 in
15:50 85.1 °F 55.1 °F 30.23 in WNW 2.1 mph 3.5 mph 36 % 0.00 in
15:55 85.2 °F 56.0 °F 30.23 in SW 4.3 mph 6.9 mph 37 % 0.00 in
16:00 85.2 °F 56.7 °F 30.23 in WNW 0.6 mph 3.5 mph 38 % 0.00 in
16:05 85.2 °F 57.4 °F 30.23 in West 3.0 mph 4.6 mph 39 % 0.00 in
16:10 85.2 °F 56.0 °F 30.23 in SSW 3.5 mph 6.0 mph 37 % 0.00 in
16:15 85.3 °F 56.1 °F 30.23 in West 2.0 mph 3.5 mph 37 % 0.00 in
16:20 85.3 °F 57.5 °F 30.22 in WSW 2.7 mph 4.0 mph 39 % 0.00 in
16:26 85.3 °F 56.8 °F 30.22 in West 3.0 mph 6.0 mph 38 % 0.00 in
16:30 85.2 °F 56.0 °F 30.22 in WSW 1.2 mph 2.0 mph 37 % 0.00 in
16:35 85.2 °F 55.2 °F 30.22 in West 2.0 mph 6.0 mph 36 % 0.00 in
16:40 85.2 °F 56.0 °F 30.22 in WSW 3.0 mph 6.0 mph 37 % 0.00 in
16:45 85.1 °F 57.4 °F 30.22 in WSW 1.0 mph 8.0 mph 39 % 0.00 in
16:50 85.0 °F 57.3 °F 30.22 in SW 1.0 mph 4.0 mph 39 % 0.00 in
16:55 84.9 °F 56.5 °F 30.23 in WSW 2.0 mph 6.0 mph 38 % 0.00 in
17:01 84.8 °F 57.8 °F 30.22 in West 0.9 mph 4.0 mph 40 % 0.00 in
17:06 84.7 °F 56.3 °F 30.22 in WNW 3.3 mph 4.6 mph 38 % 0.00 in
17:11 84.5 °F 58.2 °F 30.22 in NW 0.7 mph 3.5 mph 41 % 0.00 in
17:16 84.3 °F 58.0 °F 30.22 in WNW 0.1 mph 3.5 mph 41 % 0.00 in
17:21 84.1 °F 57.9 °F 30.22 in NNE 2.5 mph 5.0 mph 41 % 0.00 in
17:31 83.2 °F 58.4 °F 30.22 in NNE 1.0 mph 2.3 mph 43 % 0.00 in
17:36 83.0 °F 57.5 °F 30.22 in WNW 0.6 mph 2.0 mph 42 % 0.00 in
17:41 82.9 °F 56.1 °F 30.21 in WNW 0.1 mph 1.2 mph 40 % 0.00 in
17:46 82.6 °F 57.2 °F 30.21 in NNE 0.2 mph 2.3 mph 42 % 0.00 in
17:51 82.2 °F 57.5 °F 30.22 in NNE 0.9 mph 3.5 mph 43 % 0.00 in
17:56 82.0 °F 57.3 °F 30.21 in NNE 0.1 mph 2.3 mph 43 % 0.00 in
18:02 81.8 °F 55.8 °F 30.21 in Calm   1.2 mph 41 % 0.00 in
18:07 81.9 °F 56.6 °F 30.21 in Calm     42 % 0.00 in
18:12 81.6 °F 57.6 °F 30.21 in WNW 0.4 mph 2.3 mph 44 % 0.00 in
18:17 81.6 °F 58.2 °F 30.20 in SW 1.6 mph 4.0 mph 45 % 0.00 in
18:22 81.5 °F 58.7 °F 30.21 in SW 0.7 mph 2.3 mph 46 % 0.00 in
18:27 81.2 °F 58.5 °F 30.20 in SW 0.5 mph 2.3 mph 46 % 0.00 in
18:32 80.9 °F 59.4 °F 30.21 in Calm     48 % 0.00 in
18:37 80.5 °F 59.6 °F 30.21 in SW 0.7 mph 2.3 mph 49 % 0.00 in
18:42 80.0 °F 59.1 °F 30.20 in Calm   2.3 mph 49 % 0.00 in
18:47 79.5 °F 59.2 °F 30.20 in South 0.4 mph 2.0 mph 50 % 0.00 in
18:58 78.4 °F 59.3 °F 30.21 in SSE 0.5 mph 3.5 mph 52 % 0.00 in
19:03 78.0 °F 59.5 °F 30.21 in Calm   1.2 mph 53 % 0.00 in
19:08 77.4 °F 59.5 °F 30.21 in SSE 0.1 mph 3.5 mph 54 % 0.00 in
19:13 77.1 °F 59.7 °F 30.21 in West 0.8 mph 3.5 mph 55 % 0.00 in
19:18 76.8 °F 59.9 °F 30.21 in WSW 0.2 mph 1.2 mph 56 % 0.00 in
19:23 76.5 °F 59.6 °F 30.21 in WSW 0.3 mph 1.2 mph 56 % 0.00 in
19:28 76.2 °F 59.9 °F 30.21 in WSW 0.7 mph 2.3 mph 57 % 0.00 in
19:33 75.7 °F 59.4 °F 30.21 in WSW 0.2 mph 1.0 mph 57 % 0.00 in
19:38 75.4 °F 59.6 °F 30.22 in South 0.2 mph   58 % 0.00 in
19:43 75.0 °F 59.7 °F 30.21 in Calm   1.2 mph 59 % 0.00 in
19:48 74.7 °F 59.9 °F 30.21 in Calm   1.2 mph 60 % 0.00 in
19:53 74.3 °F 59.5 °F 30.22 in Calm   1.2 mph 60 % 0.00 in
19:59 74.1 °F 59.8 °F 30.21 in South 0.3 mph 1.2 mph 61 % 0.00 in
20:04 73.8 °F 60.0 °F 30.21 in WSW 0.4 mph 1.2 mph 62 % 0.00 in
20:09 73.5 °F 59.7 °F 30.21 in WSW 0.3 mph 1.2 mph 62 % 0.00 in
20:14 73.2 °F 59.8 °F 30.21 in WSW 0.1 mph 1.2 mph 63 % 0.00 in
20:19 72.9 °F 59.6 °F 30.22 in WSW 0.1 mph 1.2 mph 63 % 0.00 in
20:24 72.7 °F 59.8 °F 30.22 in WSW 0.2 mph 1.2 mph 64 % 0.00 in
20:29 72.4 °F 60.0 °F 30.22 in WSW 0.1 mph 1.0 mph 65 % 0.00 in
20:34 72.2 °F 59.8 °F 30.22 in Calm   2.3 mph 65 % 0.00 in
20:39 72.0 °F 60.0 °F 30.22 in WSW 0.5 mph 1.2 mph 66 % 0.00 in
20:44 71.7 °F 59.7 °F 30.22 in SW 0.3 mph 1.2 mph 66 % 0.00 in
20:50 71.6 °F 60.1 °F 30.22 in SW 0.4 mph 1.0 mph 67 % 0.00 in
20:55 71.4 °F 59.9 °F 30.23 in SW 0.6 mph 2.3 mph 67 % 0.00 in
21:00 71.2 °F 60.1 °F 30.22 in SW 0.1 mph 2.3 mph 68 % 0.00 in
21:05 71.1 °F 60.4 °F 30.23 in SW 0.2 mph 1.2 mph 69 % 0.00 in
21:10 70.9 °F 60.2 °F 30.23 in SW 0.1 mph 1.2 mph 69 % 0.00 in
21:15 70.8 °F 60.1 °F 30.23 in SSW 0.1 mph 1.2 mph 69 % 0.00 in
21:20 70.7 °F 60.4 °F 30.23 in SSW 0.4 mph 2.0 mph 70 % 0.00 in
21:25 70.6 °F 60.3 °F 30.23 in SSE 0.2 mph 1.2 mph 70 % 0.00 in
21:30 70.5 °F 60.6 °F 30.23 in SSE 0.1 mph 1.2 mph 71 % 0.00 in
21:35 70.4 °F 60.5 °F 30.23 in SSE 0.1 mph 1.2 mph 71 % 0.00 in
21:41 70.4 °F 60.5 °F 30.23 in South 1.0 mph 4.0 mph 71 % 0.00 in
21:46 70.3 °F 60.4 °F 30.23 in Calm   2.0 mph 71 % 0.00 in
21:51 70.3 °F 60.8 °F 30.23 in Calm   1.0 mph 72 % 0.00 in
22:01 70.1 °F 61.0 °F 30.23 in SSW 0.1 mph 1.2 mph 73 % 0.00 in
22:06 70.1 °F 61.0 °F 30.23 in Calm   2.0 mph 73 % 0.00 in
22:11 70.0 °F 61.3 °F 30.23 in Calm   2.0 mph 74 % 0.00 in
22:16 70.0 °F 61.3 °F 30.23 in SW 0.3 mph 3.5 mph 74 % 0.00 in
22:21 69.9 °F 61.6 °F 30.23 in Calm   2.0 mph 75 % 0.00 in
22:26 69.9 °F 61.6 °F 30.23 in Calm   3.0 mph 75 % 0.00 in
22:31 69.9 °F 61.6 °F 30.23 in Calm   2.0 mph 75 % 0.00 in
22:36 69.9 °F 62.0 °F 30.23 in Calm   2.0 mph 76 % 0.00 in
22:41 69.8 °F 61.9 °F 30.23 in SW 1.0 mph 3.0 mph 76 % 0.00 in
22:46 69.8 °F 61.9 °F 30.23 in Calm   2.0 mph 76 % 0.00 in
22:51 69.8 °F 62.3 °F 30.23 in SW 1.0 mph 4.0 mph 77 % 0.00 in
22:56 69.7 °F 62.2 °F 30.23 in SW 1.0 mph 3.0 mph 77 % 0.00 in
23:01 69.8 °F 62.3 °F 30.23 in SSW 0.9 mph 4.6 mph 77 % 0.00 in
23:06 69.8 °F 62.6 °F 30.23 in Calm   5.0 mph 78 % 0.00 in
23:11 69.8 °F 62.6 °F 30.23 in SW 1.0 mph 4.0 mph 78 % 0.00 in
23:16 69.8 °F 62.6 °F 30.23 in Calm   2.0 mph 78 % 0.00 in
23:21 69.8 °F 62.6 °F 30.23 in Calm   3.0 mph 78 % 0.00 in
23:26 69.9 °F 62.7 °F 30.23 in South 1.0 mph 4.0 mph 78 % 0.00 in
23:31 69.9 °F 62.7 °F 30.23 in SSW 1.0 mph 4.0 mph 78 % 0.00 in
23:36 69.9 °F 62.7 °F 30.23 in Calm   2.0 mph 78 % 0.00 in
23:41 69.8 °F 63.0 °F 30.23 in Calm   2.0 mph 79 % 0.00 in
23:46 69.8 °F 63.0 °F 30.23 in Calm   2.0 mph 79 % 0.00 in
23:56 69.8 °F 63.0 °F 30.23 in Calm   2.0 mph 79 % 0.00 in
Crab Meadow Weather
Compliments of Weather Underground - 2.75 mb

Script developed by  Jim McMurry - jmcmurry@mwt.net Adapted for the template by  Wim van der Kuil - Leuven-Template.eu

Recycling: Recycling one aluminum can saves enough energy to run a TV for three hours -- or the equivalent of a half a gallon of gasoline.